sensor_id;sensor_type;location;lat;lon;timestamp;P1;durP1;ratioP1;P2;durP2;ratioP2
21675;SDS011;10999;51.332;9.458;2023-04-26T00:00:33;4.88;;;1.20;;
21675;SDS011;10999;51.332;9.458;2023-04-26T00:03:00;7.32;;;1.77;;
21675;SDS011;10999;51.332;9.458;2023-04-26T00:05:27;7.15;;;1.60;;
21675;SDS011;10999;51.332;9.458;2023-04-26T00:07:54;5.00;;;1.58;;
21675;SDS011;10999;51.332;9.458;2023-04-26T00:10:21;5.70;;;1.65;;
21675;SDS011;10999;51.332;9.458;2023-04-26T00:12:48;4.32;;;1.35;;
21675;SDS011;10999;51.332;9.458;2023-04-26T00:15:15;7.25;;;1.40;;
21675;SDS011;10999;51.332;9.458;2023-04-26T00:17:41;7.32;;;1.30;;
21675;SDS011;10999;51.332;9.458;2023-04-26T00:20:09;7.32;;;1.38;;
21675;SDS011;10999;51.332;9.458;2023-04-26T00:22:38;6.15;;;1.75;;
21675;SDS011;10999;51.332;9.458;2023-04-26T00:25:05;5.30;;;1.58;;
21675;SDS011;10999;51.332;9.458;2023-04-26T00:27:32;5.03;;;1.63;;
21675;SDS011;10999;51.332;9.458;2023-04-26T00:29:58;4.15;;;1.25;;
21675;SDS011;10999;51.332;9.458;2023-04-26T00:32:25;5.60;;;1.83;;
21675;SDS011;10999;51.332;9.458;2023-04-26T00:34:52;5.97;;;1.65;;
21675;SDS011;10999;51.332;9.458;2023-04-26T00:37:19;4.88;;;1.33;;
21675;SDS011;10999;51.332;9.458;2023-04-26T00:39:46;7.53;;;1.83;;
21675;SDS011;10999;51.332;9.458;2023-04-26T00:42:13;5.45;;;2.17;;
21675;SDS011;10999;51.332;9.458;2023-04-26T00:44:40;5.32;;;1.17;;
21675;SDS011;10999;51.332;9.458;2023-04-26T00:47:07;5.82;;;1.88;;
21675;SDS011;10999;51.332;9.458;2023-04-26T00:49:34;7.22;;;1.70;;
21675;SDS011;10999;51.332;9.458;2023-04-26T00:52:00;6.22;;;1.77;;
21675;SDS011;10999;51.332;9.458;2023-04-26T00:54:27;6.90;;;2.22;;
21675;SDS011;10999;51.332;9.458;2023-04-26T00:56:54;5.78;;;1.70;;
21675;SDS011;10999;51.332;9.458;2023-04-26T00:59:21;3.78;;;1.60;;
21675;SDS011;10999;51.332;9.458;2023-04-26T01:01:48;5.03;;;1.52;;
21675;SDS011;10999;51.332;9.458;2023-04-26T01:04:15;9.50;;;2.20;;
21675;SDS011;10999;51.332;9.458;2023-04-26T01:06:43;8.88;;;2.03;;
21675;SDS011;10999;51.332;9.458;2023-04-26T01:09:11;7.60;;;1.88;;
21675;SDS011;10999;51.332;9.458;2023-04-26T01:11:41;6.82;;;1.67;;
21675;SDS011;10999;51.332;9.458;2023-04-26T01:14:08;6.07;;;2.00;;
21675;SDS011;10999;51.332;9.458;2023-04-26T01:16:35;6.93;;;1.88;;
21675;SDS011;10999;51.332;9.458;2023-04-26T01:19:10;9.93;;;2.10;;
21675;SDS011;10999;51.332;9.458;2023-04-26T01:21:38;6.07;;;1.73;;
21675;SDS011;10999;51.332;9.458;2023-04-26T01:24:06;9.20;;;2.22;;
21675;SDS011;10999;51.332;9.458;2023-04-26T01:26:34;7.05;;;2.15;;
21675;SDS011;10999;51.332;9.458;2023-04-26T01:29:11;6.72;;;1.92;;
21675;SDS011;10999;51.332;9.458;2023-04-26T01:31:41;9.27;;;2.10;;
21675;SDS011;10999;51.332;9.458;2023-04-26T01:34:08;6.35;;;1.88;;
21675;SDS011;10999;51.332;9.458;2023-04-26T01:36:35;6.32;;;2.75;;
21675;SDS011;10999;51.332;9.458;2023-04-26T01:39:02;6.45;;;1.73;;
21675;SDS011;10999;51.332;9.458;2023-04-26T01:41:29;9.02;;;1.85;;
21675;SDS011;10999;51.332;9.458;2023-04-26T01:43:56;5.47;;;2.00;;
21675;SDS011;10999;51.332;9.458;2023-04-26T01:46:23;7.80;;;2.30;;
21675;SDS011;10999;51.332;9.458;2023-04-26T01:48:49;6.38;;;2.13;;
21675;SDS011;10999;51.332;9.458;2023-04-26T01:51:17;9.30;;;2.15;;
21675;SDS011;10999;51.332;9.458;2023-04-26T01:53:43;6.72;;;1.48;;
21675;SDS011;10999;51.332;9.458;2023-04-26T01:56:10;6.78;;;1.55;;
21675;SDS011;10999;51.332;9.458;2023-04-26T01:58:37;7.22;;;2.20;;
21675;SDS011;10999;51.332;9.458;2023-04-26T02:01:04;7.38;;;1.70;;
21675;SDS011;10999;51.332;9.458;2023-04-26T02:03:32;4.38;;;1.40;;
21675;SDS011;10999;51.332;9.458;2023-04-26T02:05:59;9.15;;;2.00;;
21675;SDS011;10999;51.332;9.458;2023-04-26T02:08:26;7.85;;;2.28;;
21675;SDS011;10999;51.332;9.458;2023-04-26T02:10:53;7.43;;;2.13;;
21675;SDS011;10999;51.332;9.458;2023-04-26T02:13:19;8.00;;;2.20;;
21675;SDS011;10999;51.332;9.458;2023-04-26T02:15:46;6.88;;;2.10;;
21675;SDS011;10999;51.332;9.458;2023-04-26T02:18:14;7.55;;;1.73;;
21675;SDS011;10999;51.332;9.458;2023-04-26T02:20:42;10.85;;;2.42;;
21675;SDS011;10999;51.332;9.458;2023-04-26T02:23:10;7.45;;;1.92;;
21675;SDS011;10999;51.332;9.458;2023-04-26T02:25:37;7.90;;;2.28;;
21675;SDS011;10999;51.332;9.458;2023-04-26T02:28:05;7.40;;;2.33;;
21675;SDS011;10999;51.332;9.458;2023-04-26T02:30:31;5.88;;;1.70;;
21675;SDS011;10999;51.332;9.458;2023-04-26T02:32:58;8.70;;;2.20;;
21675;SDS011;10999;51.332;9.458;2023-04-26T02:35:25;5.22;;;1.58;;
21675;SDS011;10999;51.332;9.458;2023-04-26T02:37:51;5.05;;;1.90;;
21675;SDS011;10999;51.332;9.458;2023-04-26T02:40:18;5.45;;;1.42;;
21675;SDS011;10999;51.332;9.458;2023-04-26T02:42:45;5.88;;;2.00;;
21675;SDS011;10999;51.332;9.458;2023-04-26T02:45:12;6.68;;;1.77;;
21675;SDS011;10999;51.332;9.458;2023-04-26T02:47:39;6.43;;;1.95;;
21675;SDS011;10999;51.332;9.458;2023-04-26T02:50:06;4.22;;;1.75;;
21675;SDS011;10999;51.332;9.458;2023-04-26T02:52:35;5.68;;;1.55;;
21675;SDS011;10999;51.332;9.458;2023-04-26T02:55:02;7.82;;;1.75;;
21675;SDS011;10999;51.332;9.458;2023-04-26T02:57:30;8.52;;;1.98;;
21675;SDS011;10999;51.332;9.458;2023-04-26T02:59:57;6.30;;;2.03;;
21675;SDS011;10999;51.332;9.458;2023-04-26T03:02:24;7.40;;;1.90;;
21675;SDS011;10999;51.332;9.458;2023-04-26T03:04:51;6.28;;;2.13;;
21675;SDS011;10999;51.332;9.458;2023-04-26T03:07:18;8.98;;;2.58;;
21675;SDS011;10999;51.332;9.458;2023-04-26T03:09:44;6.22;;;2.53;;
21675;SDS011;10999;51.332;9.458;2023-04-26T03:12:11;5.60;;;1.88;;
21675;SDS011;10999;51.332;9.458;2023-04-26T03:14:38;6.63;;;1.70;;
21675;SDS011;10999;51.332;9.458;2023-04-26T03:17:04;7.85;;;1.58;;
21675;SDS011;10999;51.332;9.458;2023-04-26T03:19:31;7.53;;;1.85;;
21675;SDS011;10999;51.332;9.458;2023-04-26T03:21:58;6.55;;;2.05;;
21675;SDS011;10999;51.332;9.458;2023-04-26T03:24:25;6.35;;;2.38;;
21675;SDS011;10999;51.332;9.458;2023-04-26T03:26:51;8.13;;;1.98;;
21675;SDS011;10999;51.332;9.458;2023-04-26T03:29:18;6.55;;;2.22;;
21675;SDS011;10999;51.332;9.458;2023-04-26T03:31:45;7.13;;;1.73;;
21675;SDS011;10999;51.332;9.458;2023-04-26T03:34:11;7.30;;;2.03;;
21675;SDS011;10999;51.332;9.458;2023-04-26T03:36:38;7.85;;;2.08;;
21675;SDS011;10999;51.332;9.458;2023-04-26T03:39:05;18.55;;;2.90;;
21675;SDS011;10999;51.332;9.458;2023-04-26T03:41:32;9.70;;;2.42;;
21675;SDS011;10999;51.332;9.458;2023-04-26T03:44:01;6.80;;;1.83;;
21675;SDS011;10999;51.332;9.458;2023-04-26T03:46:28;8.52;;;2.28;;
21675;SDS011;10999;51.332;9.458;2023-04-26T03:48:55;11.02;;;2.25;;
21675;SDS011;10999;51.332;9.458;2023-04-26T03:51:22;8.55;;;2.00;;
21675;SDS011;10999;51.332;9.458;2023-04-26T03:53:48;8.40;;;2.22;;
21675;SDS011;10999;51.332;9.458;2023-04-26T03:56:16;4.90;;;1.40;;
21675;SDS011;10999;51.332;9.458;2023-04-26T03:58:42;6.85;;;2.13;;
21675;SDS011;10999;51.332;9.458;2023-04-26T04:01:09;9.20;;;2.15;;
21675;SDS011;10999;51.332;9.458;2023-04-26T04:03:36;9.20;;;2.58;;
21675;SDS011;10999;51.332;9.458;2023-04-26T04:06:06;6.10;;;2.45;;
21675;SDS011;10999;51.332;9.458;2023-04-26T04:08:33;9.35;;;2.20;;
21675;SDS011;10999;51.332;9.458;2023-04-26T04:10:59;7.55;;;2.05;;
21675;SDS011;10999;51.332;9.458;2023-04-26T04:13:26;6.53;;;2.13;;
21675;SDS011;10999;51.332;9.458;2023-04-26T04:15:53;7.88;;;2.22;;
21675;SDS011;10999;51.332;9.458;2023-04-26T04:18:20;6.78;;;1.70;;
21675;SDS011;10999;51.332;9.458;2023-04-26T04:20:46;7.95;;;2.30;;
21675;SDS011;10999;51.332;9.458;2023-04-26T04:23:13;7.53;;;2.13;;
21675;SDS011;10999;51.332;9.458;2023-04-26T04:25:40;6.05;;;1.85;;
21675;SDS011;10999;51.332;9.458;2023-04-26T04:28:07;7.85;;;2.25;;
21675;SDS011;10999;51.332;9.458;2023-04-26T04:30:34;7.40;;;2.25;;
21675;SDS011;10999;51.332;9.458;2023-04-26T04:33:00;6.05;;;1.77;;
21675;SDS011;10999;51.332;9.458;2023-04-26T04:35:29;6.32;;;1.70;;
21675;SDS011;10999;51.332;9.458;2023-04-26T04:37:59;6.22;;;2.17;;
21675;SDS011;10999;51.332;9.458;2023-04-26T04:40:26;6.22;;;2.13;;
21675;SDS011;10999;51.332;9.458;2023-04-26T04:42:53;6.47;;;2.08;;
21675;SDS011;10999;51.332;9.458;2023-04-26T04:45:20;7.75;;;1.60;;
21675;SDS011;10999;51.332;9.458;2023-04-26T04:47:48;6.60;;;1.92;;
21675;SDS011;10999;51.332;9.458;2023-04-26T04:50:14;7.88;;;1.98;;
21675;SDS011;10999;51.332;9.458;2023-04-26T04:52:41;7.32;;;2.58;;
21675;SDS011;10999;51.332;9.458;2023-04-26T04:55:08;12.20;;;2.15;;
21675;SDS011;10999;51.332;9.458;2023-04-26T04:57:35;7.30;;;1.92;;
21675;SDS011;10999;51.332;9.458;2023-04-26T05:00:02;5.88;;;2.10;;
21675;SDS011;10999;51.332;9.458;2023-04-26T05:02:35;6.55;;;2.13;;
21675;SDS011;10999;51.332;9.458;2023-04-26T05:05:03;7.57;;;2.70;;
21675;SDS011;10999;51.332;9.458;2023-04-26T05:07:30;9.75;;;2.53;;
21675;SDS011;10999;51.332;9.458;2023-04-26T05:09:57;6.45;;;2.28;;
21675;SDS011;10999;51.332;9.458;2023-04-26T05:12:25;7.32;;;2.70;;
21675;SDS011;10999;51.332;9.458;2023-04-26T05:14:52;8.13;;;3.03;;
21675;SDS011;10999;51.332;9.458;2023-04-26T05:17:19;9.05;;;2.75;;
21675;SDS011;10999;51.332;9.458;2023-04-26T05:19:46;8.63;;;2.83;;
21675;SDS011;10999;51.332;9.458;2023-04-26T05:22:12;10.15;;;3.13;;
21675;SDS011;10999;51.332;9.458;2023-04-26T05:24:44;7.80;;;2.95;;
21675;SDS011;10999;51.332;9.458;2023-04-26T05:27:12;8.80;;;2.88;;
21675;SDS011;10999;51.332;9.458;2023-04-26T05:29:39;11.02;;;2.80;;
21675;SDS011;10999;51.332;9.458;2023-04-26T05:32:07;7.85;;;3.22;;
21675;SDS011;10999;51.332;9.458;2023-04-26T05:34:34;10.23;;;2.85;;
21675;SDS011;10999;51.332;9.458;2023-04-26T05:37:01;9.50;;;2.70;;
21675;SDS011;10999;51.332;9.458;2023-04-26T05:39:28;8.82;;;2.92;;
21675;SDS011;10999;51.332;9.458;2023-04-26T05:41:55;6.45;;;2.38;;
21675;SDS011;10999;51.332;9.458;2023-04-26T05:44:22;14.93;;;2.63;;
21675;SDS011;10999;51.332;9.458;2023-04-26T05:46:49;8.95;;;2.63;;
21675;SDS011;10999;51.332;9.458;2023-04-26T05:49:16;9.07;;;2.92;;
21675;SDS011;10999;51.332;9.458;2023-04-26T05:51:43;8.40;;;3.05;;
21675;SDS011;10999;51.332;9.458;2023-04-26T05:54:10;10.32;;;2.78;;
21675;SDS011;10999;51.332;9.458;2023-04-26T05:56:36;9.38;;;2.92;;
21675;SDS011;10999;51.332;9.458;2023-04-26T05:59:03;8.10;;;2.28;;
21675;SDS011;10999;51.332;9.458;2023-04-26T06:01:30;8.95;;;3.10;;
21675;SDS011;10999;51.332;9.458;2023-04-26T06:03:57;13.43;;;2.95;;
21675;SDS011;10999;51.332;9.458;2023-04-26T06:06:26;11.25;;;2.67;;
21675;SDS011;10999;51.332;9.458;2023-04-26T06:08:53;8.10;;;3.10;;
21675;SDS011;10999;51.332;9.458;2023-04-26T06:11:20;10.60;;;2.70;;
21675;SDS011;10999;51.332;9.458;2023-04-26T06:13:47;8.48;;;2.60;;
21675;SDS011;10999;51.332;9.458;2023-04-26T06:16:14;8.82;;;2.20;;
21675;SDS011;10999;51.332;9.458;2023-04-26T06:18:42;9.05;;;2.35;;
21675;SDS011;10999;51.332;9.458;2023-04-26T06:21:08;8.23;;;2.17;;
21675;SDS011;10999;51.332;9.458;2023-04-26T06:23:35;9.05;;;2.60;;
21675;SDS011;10999;51.332;9.458;2023-04-26T06:26:02;10.93;;;2.88;;
21675;SDS011;10999;51.332;9.458;2023-04-26T06:28:29;8.57;;;2.72;;
21675;SDS011;10999;51.332;9.458;2023-04-26T06:30:56;6.57;;;2.20;;
21675;SDS011;10999;51.332;9.458;2023-04-26T06:33:22;8.93;;;2.45;;
21675;SDS011;10999;51.332;9.458;2023-04-26T06:35:49;10.15;;;2.97;;
21675;SDS011;10999;51.332;9.458;2023-04-26T06:38:16;11.18;;;2.60;;
21675;SDS011;10999;51.332;9.458;2023-04-26T06:40:43;10.98;;;2.72;;
21675;SDS011;10999;51.332;9.458;2023-04-26T06:43:10;6.00;;;2.08;;
21675;SDS011;10999;51.332;9.458;2023-04-26T06:45:36;5.00;;;2.22;;
21675;SDS011;10999;51.332;9.458;2023-04-26T06:48:03;6.63;;;3.03;;
21675;SDS011;10999;51.332;9.458;2023-04-26T06:50:30;6.63;;;2.28;;
21675;SDS011;10999;51.332;9.458;2023-04-26T06:52:57;8.77;;;2.45;;
21675;SDS011;10999;51.332;9.458;2023-04-26T06:55:24;6.78;;;2.08;;
21675;SDS011;10999;51.332;9.458;2023-04-26T06:57:50;7.07;;;2.30;;
21675;SDS011;10999;51.332;9.458;2023-04-26T07:00:17;5.97;;;2.15;;
21675;SDS011;10999;51.332;9.458;2023-04-26T07:02:44;5.10;;;2.22;;
21675;SDS011;10999;51.332;9.458;2023-04-26T07:05:11;11.15;;;2.47;;
21675;SDS011;10999;51.332;9.458;2023-04-26T07:07:40;9.77;;;2.88;;
21675;SDS011;10999;51.332;9.458;2023-04-26T07:10:07;8.75;;;2.40;;
21675;SDS011;10999;51.332;9.458;2023-04-26T07:12:34;8.13;;;2.58;;
21675;SDS011;10999;51.332;9.458;2023-04-26T07:15:01;6.60;;;2.00;;
21675;SDS011;10999;51.332;9.458;2023-04-26T07:17:29;3.83;;;1.60;;
21675;SDS011;10999;51.332;9.458;2023-04-26T07:19:56;6.13;;;1.42;;
21675;SDS011;10999;51.332;9.458;2023-04-26T07:22:23;7.55;;;1.90;;
21675;SDS011;10999;51.332;9.458;2023-04-26T07:24:49;5.93;;;1.73;;
21675;SDS011;10999;51.332;9.458;2023-04-26T07:27:16;9.00;;;1.70;;
21675;SDS011;10999;51.332;9.458;2023-04-26T07:29:43;8.80;;;1.67;;
21675;SDS011;10999;51.332;9.458;2023-04-26T07:32:09;4.55;;;1.33;;
21675;SDS011;10999;51.332;9.458;2023-04-26T07:34:36;3.58;;;1.35;;
21675;SDS011;10999;51.332;9.458;2023-04-26T07:37:03;8.85;;;1.80;;
21675;SDS011;10999;51.332;9.458;2023-04-26T07:39:30;5.15;;;1.15;;
21675;SDS011;10999;51.332;9.458;2023-04-26T07:41:56;7.40;;;1.60;;
21675;SDS011;10999;51.332;9.458;2023-04-26T07:44:23;6.18;;;1.73;;
21675;SDS011;10999;51.332;9.458;2023-04-26T07:46:50;9.20;;;1.92;;
21675;SDS011;10999;51.332;9.458;2023-04-26T07:49:16;4.35;;;1.23;;
21675;SDS011;10999;51.332;9.458;2023-04-26T07:51:43;5.28;;;1.40;;
21675;SDS011;10999;51.332;9.458;2023-04-26T07:54:10;4.90;;;1.33;;
21675;SDS011;10999;51.332;9.458;2023-04-26T07:56:37;8.70;;;1.67;;
21675;SDS011;10999;51.332;9.458;2023-04-26T07:59:04;4.03;;;1.33;;
21675;SDS011;10999;51.332;9.458;2023-04-26T08:01:30;6.85;;;1.50;;
21675;SDS011;10999;51.332;9.458;2023-04-26T08:03:57;10.23;;;1.73;;
21675;SDS011;10999;51.332;9.458;2023-04-26T08:06:25;5.80;;;1.45;;
21675;SDS011;10999;51.332;9.458;2023-04-26T08:08:52;4.47;;;1.25;;
21675;SDS011;10999;51.332;9.458;2023-04-26T08:11:19;6.13;;;1.83;;
21675;SDS011;10999;51.332;9.458;2023-04-26T08:13:46;7.70;;;1.40;;
21675;SDS011;10999;51.332;9.458;2023-04-26T08:16:13;6.43;;;1.60;;
21675;SDS011;10999;51.332;9.458;2023-04-26T08:18:40;9.00;;;1.85;;
21675;SDS011;10999;51.332;9.458;2023-04-26T08:21:10;4.78;;;1.58;;
21675;SDS011;10999;51.332;9.458;2023-04-26T08:23:37;6.90;;;1.98;;
21675;SDS011;10999;51.332;9.458;2023-04-26T08:26:03;4.80;;;1.33;;
21675;SDS011;10999;51.332;9.458;2023-04-26T08:28:31;6.50;;;1.45;;
21675;SDS011;10999;51.332;9.458;2023-04-26T08:30:58;4.93;;;1.63;;
21675;SDS011;10999;51.332;9.458;2023-04-26T08:33:25;6.43;;;1.50;;
21675;SDS011;10999;51.332;9.458;2023-04-26T08:35:51;3.58;;;1.30;;
21675;SDS011;10999;51.332;9.458;2023-04-26T08:38:18;3.75;;;1.23;;
21675;SDS011;10999;51.332;9.458;2023-04-26T08:40:47;5.72;;;1.70;;
21675;SDS011;10999;51.332;9.458;2023-04-26T08:43:14;5.20;;;1.05;;
21675;SDS011;10999;51.332;9.458;2023-04-26T08:45:44;3.70;;;1.35;;
21675;SDS011;10999;51.332;9.458;2023-04-26T08:48:12;4.70;;;1.45;;
21675;SDS011;10999;51.332;9.458;2023-04-26T08:50:42;6.85;;;1.38;;
21675;SDS011;10999;51.332;9.458;2023-04-26T08:53:14;3.88;;;1.10;;
21675;SDS011;10999;51.332;9.458;2023-04-26T08:55:46;5.30;;;1.40;;
21675;SDS011;10999;51.332;9.458;2023-04-26T08:58:14;7.50;;;1.33;;
21675;SDS011;10999;51.332;9.458;2023-04-26T09:00:42;5.72;;;1.17;;
21675;SDS011;10999;51.332;9.458;2023-04-26T09:03:13;4.25;;;1.45;;
21675;SDS011;10999;51.332;9.458;2023-04-26T09:05:41;6.63;;;1.45;;
21675;SDS011;10999;51.332;9.458;2023-04-26T09:08:13;5.10;;;1.40;;
21675;SDS011;10999;51.332;9.458;2023-04-26T09:10:42;5.35;;;1.20;;
21675;SDS011;10999;51.332;9.458;2023-04-26T09:13:09;3.70;;;1.17;;
21675;SDS011;10999;51.332;9.458;2023-04-26T09:15:36;4.25;;;1.55;;
21675;SDS011;10999;51.332;9.458;2023-04-26T09:18:20;4.28;;;1.10;;
21675;SDS011;10999;51.332;9.458;2023-04-26T09:21:04;5.88;;;1.38;;
21675;SDS011;10999;51.332;9.458;2023-04-26T09:23:33;6.30;;;1.40;;
21675;SDS011;10999;51.332;9.458;2023-04-26T09:26:19;5.15;;;1.17;;
21675;SDS011;10999;51.332;9.458;2023-04-26T09:28:47;5.13;;;1.17;;
21675;SDS011;10999;51.332;9.458;2023-04-26T09:32:00;4.85;;;1.60;;
21675;SDS011;10999;51.332;9.458;2023-04-26T09:34:03;5.72;;;1.17;;
21675;SDS011;10999;51.332;9.458;2023-04-26T09:36:30;2.28;;;0.95;;
21675;SDS011;10999;51.332;9.458;2023-04-26T09:38:57;3.92;;;0.90;;
21675;SDS011;10999;51.332;9.458;2023-04-26T09:41:40;3.63;;;1.33;;
21675;SDS011;10999;51.332;9.458;2023-04-26T09:44:21;3.15;;;1.08;;
21675;SDS011;10999;51.332;9.458;2023-04-26T09:49:43;5.80;;;1.23;;
21675;SDS011;10999;51.332;9.458;2023-04-26T09:52:19;6.35;;;1.52;;
21675;SDS011;10999;51.332;9.458;2023-04-26T09:54:47;4.05;;;1.15;;
21675;SDS011;10999;51.332;9.458;2023-04-26T09:57:15;5.22;;;1.40;;
21675;SDS011;10999;51.332;9.458;2023-04-26T09:59:47;3.35;;;1.02;;
21675;SDS011;10999;51.332;9.458;2023-04-26T10:02:24;3.60;;;1.10;;
21675;SDS011;10999;51.332;9.458;2023-04-26T10:04:53;4.60;;;1.13;;
21675;SDS011;10999;51.332;9.458;2023-04-26T10:07:23;5.03;;;1.42;;
21675;SDS011;10999;51.332;9.458;2023-04-26T10:09:50;5.97;;;1.50;;
21675;SDS011;10999;51.332;9.458;2023-04-26T10:12:17;7.07;;;1.42;;
21675;SDS011;10999;51.332;9.458;2023-04-26T10:14:45;4.50;;;1.20;;
21675;SDS011;10999;51.332;9.458;2023-04-26T10:17:12;2.28;;;1.15;;
21675;SDS011;10999;51.332;9.458;2023-04-26T10:19:42;5.63;;;1.70;;
21675;SDS011;10999;51.332;9.458;2023-04-26T10:22:15;6.60;;;1.38;;
21675;SDS011;10999;51.332;9.458;2023-04-26T10:24:46;5.43;;;1.40;;
21675;SDS011;10999;51.332;9.458;2023-04-26T10:27:14;2.97;;;1.17;;
21675;SDS011;10999;51.332;9.458;2023-04-26T10:32:20;4.00;;;1.42;;
21675;SDS011;10999;51.332;9.458;2023-04-26T10:40:33;4.60;;;1.00;;
21675;SDS011;10999;51.332;9.458;2023-04-26T10:45:36;4.88;;;1.73;;
21675;SDS011;10999;51.332;9.458;2023-04-26T10:48:14;5.18;;;1.30;;
21675;SDS011;10999;51.332;9.458;2023-04-26T10:53:28;4.22;;;1.30;;
21675;SDS011;10999;51.332;9.458;2023-04-26T10:55:54;3.40;;;1.20;;
21675;SDS011;10999;51.332;9.458;2023-04-26T10:58:25;3.53;;;1.20;;
21675;SDS011;10999;51.332;9.458;2023-04-26T11:01:28;4.70;;;1.50;;
21675;SDS011;10999;51.332;9.458;2023-04-26T11:04:08;5.07;;;1.17;;
21675;SDS011;10999;51.332;9.458;2023-04-26T11:09:33;3.60;;;1.30;;
21675;SDS011;10999;51.332;9.458;2023-04-26T11:12:04;6.47;;;1.13;;
21675;SDS011;10999;51.332;9.458;2023-04-26T11:14:32;6.70;;;1.52;;
21675;SDS011;10999;51.332;9.458;2023-04-26T11:17:05;3.33;;;1.05;;
21675;SDS011;10999;51.332;9.458;2023-04-26T11:19:33;3.15;;;1.10;;
21675;SDS011;10999;51.332;9.458;2023-04-26T11:22:01;6.13;;;1.30;;
21675;SDS011;10999;51.332;9.458;2023-04-26T11:24:29;3.20;;;1.40;;
21675;SDS011;10999;51.332;9.458;2023-04-26T11:26:56;2.53;;;1.30;;
21675;SDS011;10999;51.332;9.458;2023-04-26T11:29:23;3.20;;;1.30;;
21675;SDS011;10999;51.332;9.458;2023-04-26T11:31:55;4.97;;;1.60;;
21675;SDS011;10999;51.332;9.458;2023-04-26T11:34:33;6.63;;;1.58;;
21675;SDS011;10999;51.332;9.458;2023-04-26T11:37:02;6.63;;;1.58;;
21675;SDS011;10999;51.332;9.458;2023-04-26T11:39:33;5.63;;;1.20;;
21675;SDS011;10999;51.332;9.458;2023-04-26T11:42:07;2.40;;;1.13;;
21675;SDS011;10999;51.332;9.458;2023-04-26T11:44:35;7.25;;;1.48;;
21675;SDS011;10999;51.332;9.458;2023-04-26T11:47:04;4.00;;;1.30;;
21675;SDS011;10999;51.332;9.458;2023-04-26T11:49:33;6.10;;;1.48;;
21675;SDS011;10999;51.332;9.458;2023-04-26T11:52:02;4.00;;;1.77;;
21675;SDS011;10999;51.332;9.458;2023-04-26T11:54:33;4.70;;;1.00;;
21675;SDS011;10999;51.332;9.458;2023-04-26T11:57:11;1.65;;;1.00;;
21675;SDS011;10999;51.332;9.458;2023-04-26T11:59:42;3.20;;;1.45;;
21675;SDS011;10999;51.332;9.458;2023-04-26T12:02:12;4.60;;;1.27;;
21675;SDS011;10999;51.332;9.458;2023-04-26T12:04:44;6.47;;;1.15;;
21675;SDS011;10999;51.332;9.458;2023-04-26T12:07:12;5.22;;;1.80;;
21675;SDS011;10999;51.332;9.458;2023-04-26T12:09:43;4.88;;;1.40;;
21675;SDS011;10999;51.332;9.458;2023-04-26T12:12:11;2.85;;;1.73;;
21675;SDS011;10999;51.332;9.458;2023-04-26T12:14:38;4.57;;;1.20;;
21675;SDS011;10999;51.332;9.458;2023-04-26T12:17:05;5.47;;;1.60;;
21675;SDS011;10999;51.332;9.458;2023-04-26T12:19:33;4.07;;;1.48;;
21675;SDS011;10999;51.332;9.458;2023-04-26T12:22:04;3.88;;;1.55;;
21675;SDS011;10999;51.332;9.458;2023-04-26T12:24:32;5.78;;;1.45;;
21675;SDS011;10999;51.332;9.458;2023-04-26T12:27:02;2.85;;;1.10;;
21675;SDS011;10999;51.332;9.458;2023-04-26T12:29:31;4.10;;;1.40;;
21675;SDS011;10999;51.332;9.458;2023-04-26T12:31:59;3.78;;;1.50;;
21675;SDS011;10999;51.332;9.458;2023-04-26T12:34:26;3.17;;;1.40;;
21675;SDS011;10999;51.332;9.458;2023-04-26T12:36:53;6.05;;;2.20;;
21675;SDS011;10999;51.332;9.458;2023-04-26T12:39:20;4.38;;;1.50;;
21675;SDS011;10999;51.332;9.458;2023-04-26T12:41:47;4.85;;;1.25;;
21675;SDS011;10999;51.332;9.458;2023-04-26T12:44:14;4.20;;;1.63;;
21675;SDS011;10999;51.332;9.458;2023-04-26T12:46:47;3.83;;;1.40;;
21675;SDS011;10999;51.332;9.458;2023-04-26T12:49:14;4.68;;;1.30;;
21675;SDS011;10999;51.332;9.458;2023-04-26T12:51:41;7.63;;;1.77;;
21675;SDS011;10999;51.332;9.458;2023-04-26T12:54:08;6.97;;;1.60;;
21675;SDS011;10999;51.332;9.458;2023-04-26T12:56:39;6.50;;;1.30;;
21675;SDS011;10999;51.332;9.458;2023-04-26T12:59:09;4.35;;;2.00;;
21675;SDS011;10999;51.332;9.458;2023-04-26T13:01:36;6.90;;;1.35;;
21675;SDS011;10999;51.332;9.458;2023-04-26T13:04:03;3.97;;;1.42;;
21675;SDS011;10999;51.332;9.458;2023-04-26T13:06:31;4.68;;;1.40;;
21675;SDS011;10999;51.332;9.458;2023-04-26T13:08:58;4.85;;;1.45;;
21675;SDS011;10999;51.332;9.458;2023-04-26T13:11:25;4.95;;;1.67;;
21675;SDS011;10999;51.332;9.458;2023-04-26T13:13:51;4.47;;;1.40;;
21675;SDS011;10999;51.332;9.458;2023-04-26T13:16:18;5.20;;;1.80;;
21675;SDS011;10999;51.332;9.458;2023-04-26T13:18:45;4.32;;;1.67;;
21675;SDS011;10999;51.332;9.458;2023-04-26T13:21:12;4.18;;;1.50;;
21675;SDS011;10999;51.332;9.458;2023-04-26T13:23:38;4.95;;;1.67;;
21675;SDS011;10999;51.332;9.458;2023-04-26T13:26:05;6.43;;;1.70;;
21675;SDS011;10999;51.332;9.458;2023-04-26T13:28:33;4.25;;;1.65;;
21675;SDS011;10999;51.332;9.458;2023-04-26T13:31:01;5.28;;;1.70;;
21675;SDS011;10999;51.332;9.458;2023-04-26T13:33:28;6.50;;;1.60;;
21675;SDS011;10999;51.332;9.458;2023-04-26T13:35:55;5.03;;;2.10;;
21675;SDS011;10999;51.332;9.458;2023-04-26T13:38:22;4.70;;;1.80;;
21675;SDS011;10999;51.332;9.458;2023-04-26T13:40:50;6.30;;;1.73;;
21675;SDS011;10999;51.332;9.458;2023-04-26T13:43:17;5.05;;;1.95;;
21675;SDS011;10999;51.332;9.458;2023-04-26T13:45:44;4.40;;;1.70;;
21675;SDS011;10999;51.332;9.458;2023-04-26T13:48:11;6.82;;;1.77;;
21675;SDS011;10999;51.332;9.458;2023-04-26T13:50:38;3.53;;;1.33;;
21675;SDS011;10999;51.332;9.458;2023-04-26T13:53:05;4.00;;;1.35;;
21675;SDS011;10999;51.332;9.458;2023-04-26T13:55:32;4.95;;;1.60;;
21675;SDS011;10999;51.332;9.458;2023-04-26T13:57:58;6.88;;;1.83;;
21675;SDS011;10999;51.332;9.458;2023-04-26T14:00:25;5.43;;;1.48;;
21675;SDS011;10999;51.332;9.458;2023-04-26T14:02:52;6.43;;;2.00;;
21675;SDS011;10999;51.332;9.458;2023-04-26T14:05:19;3.13;;;1.20;;
21675;SDS011;10999;51.332;9.458;2023-04-26T14:07:46;3.88;;;1.42;;
21675;SDS011;10999;51.332;9.458;2023-04-26T14:10:13;5.05;;;1.80;;
21675;SDS011;10999;51.332;9.458;2023-04-26T14:12:40;6.35;;;2.10;;
21675;SDS011;10999;51.332;9.458;2023-04-26T14:15:08;6.10;;;1.95;;
21675;SDS011;10999;51.332;9.458;2023-04-26T14:17:35;4.68;;;1.52;;
21675;SDS011;10999;51.332;9.458;2023-04-26T14:20:02;4.07;;;1.77;;
21675;SDS011;10999;51.332;9.458;2023-04-26T14:22:30;5.13;;;1.88;;
21675;SDS011;10999;51.332;9.458;2023-04-26T14:24:57;5.10;;;2.00;;
21675;SDS011;10999;51.332;9.458;2023-04-26T14:27:23;6.30;;;2.40;;
21675;SDS011;10999;51.332;9.458;2023-04-26T14:29:50;8.32;;;1.88;;
21675;SDS011;10999;51.332;9.458;2023-04-26T14:32:17;7.03;;;2.13;;
21675;SDS011;10999;51.332;9.458;2023-04-26T14:34:43;5.60;;;1.98;;
21675;SDS011;10999;51.332;9.458;2023-04-26T14:37:10;5.47;;;1.83;;
21675;SDS011;10999;51.332;9.458;2023-04-26T14:39:37;7.15;;;1.92;;
21675;SDS011;10999;51.332;9.458;2023-04-26T14:42:04;6.47;;;2.22;;
21675;SDS011;10999;51.332;9.458;2023-04-26T14:44:31;4.72;;;1.75;;
21675;SDS011;10999;51.332;9.458;2023-04-26T14:46:58;5.55;;;2.08;;
21675;SDS011;10999;51.332;9.458;2023-04-26T14:49:25;5.03;;;2.13;;
21675;SDS011;10999;51.332;9.458;2023-04-26T14:51:51;5.82;;;1.83;;
21675;SDS011;10999;51.332;9.458;2023-04-26T14:54:19;5.28;;;1.90;;
21675;SDS011;10999;51.332;9.458;2023-04-26T14:56:46;5.40;;;2.08;;
21675;SDS011;10999;51.332;9.458;2023-04-26T14:59:17;7.80;;;2.50;;
21675;SDS011;10999;51.332;9.458;2023-04-26T15:01:43;4.95;;;2.45;;
21675;SDS011;10999;51.332;9.458;2023-04-26T15:04:10;5.55;;;2.38;;
21675;SDS011;10999;51.332;9.458;2023-04-26T15:06:37;6.05;;;2.20;;
21675;SDS011;10999;51.332;9.458;2023-04-26T15:09:05;6.65;;;2.53;;
21675;SDS011;10999;51.332;9.458;2023-04-26T15:11:34;5.68;;;2.20;;